Weather at Kelila Airport

Public forecast

Using degrees Celsius for public forecast. Weather courtesy of forecast.io.

Closest aviation weather report (METAR) to Kelila Airport

Closest report is Dortheys Hiyo Eluay International Airport, 128.6 nm (238.1 km) ENE.

2024/06/16 11:30 (retrieved 38 minutes ago)

WAJJ 161130Z VRB02KT 9999 FEW013 26/25 Q1011

Closest aviation forecast (TAF) to Kelila Airport

Closest forecast is Bandanaira Airport, 529.4 nm (980.5 km) W.

2024/06/16 12:54 (retrieved 0 seconds ago)

TAF WAPC 161100Z 1612/1624 14010KT 8000 FEW020